Time;durP1;ratioP1;P1;durP2;ratioP2;P2;SDS_P1;SDS_P2;PMS_P1;PMS_P2;Temp;Humidity;BMP_temperature;BMP_pressure;BME280_temperature;BME280_humidity;BME280_pressure;Samples;Min_cycle;Max_cycle;Signal;HPM_P1;HPM_P2
2023/11/26 00:00:32;;;;;;;0.00;0.00;;;;;;;-0.59;100.00;95304.41;1034491;28;20578;-73
2023/11/26 00:01:03;;;;;;;0.65;0.65;;;;;;;-0.58;100.00;95302.63;1027032;28;20022;-73
2023/11/26 00:01:36;;;;;;;0.20;0.20;;;;;;;-0.58;100.00;95297.47;1026322;28;20022;-74
2023/11/26 00:02:07;;;;;;;0.10;0.10;;;;;;;-0.60;100.00;95307.19;1028514;28;20056;-73
2023/11/26 00:02:38;;;;;;;0.20;0.20;;;;;;;-0.59;100.00;95306.19;1031014;28;20054;-73
2023/11/26 00:03:08;;;;;;;0.40;0.40;;;;;;;-0.58;100.00;95310.34;1031281;28;20037;-72
2023/11/26 00:03:39;;;;;;;0.05;0.05;;;;;;;-0.59;100.00;95298.47;1025546;28;20038;-72
2023/11/26 00:04:09;;;;;;;0.30;0.30;;;;;;;-0.64;100.00;95293.91;1027040;28;20037;-73
2023/11/26 00:04:40;;;;;;;0.10;0.10;;;;;;;-0.58;100.00;95305.19;1031041;28;20030;-73
2023/11/26 00:05:10;;;;;;;0.28;0.28;;;;;;;-0.57;100.00;95310.16;1018965;29;20020;-73
2023/11/26 00:05:41;;;;;;;0.10;0.10;;;;;;;-0.58;100.00;95305.97;1018732;29;20028;-72
2023/11/26 00:06:11;;;;;;;0.20;0.20;;;;;;;-0.56;100.00;95303.22;1023037;29;20380;-73
2023/11/26 00:06:45;;;;;;;0.55;0.43;;;;;;;-0.55;100.00;95315.88;1022625;29;20117;-73
2023/11/26 00:07:15;;;;;;;0.00;0.00;;;;;;;-0.57;100.00;95311.91;1023015;29;20038;-72
2023/11/26 00:07:46;;;;;;;0.22;0.22;;;;;;;-0.59;100.00;95313.94;1018751;29;20031;-73
2023/11/26 00:08:17;;;;;;;0.20;0.20;;;;;;;-0.58;100.00;95318.06;1022607;29;20066;-73
2023/11/26 00:08:47;;;;;;;0.20;0.20;;;;;;;-0.57;100.00;95317.06;1022899;29;20027;-72
2023/11/26 00:09:18;;;;;;;0.47;0.25;;;;;;;-0.58;100.00;95310.34;1014769;29;20640;-74
2023/11/26 00:09:48;;;;;;;0.00;0.00;;;;;;;-0.56;100.00;95313.53;1022948;29;20016;-73
2023/11/26 00:10:19;;;;;;;0.15;0.15;;;;;;;-0.57;100.00;95315.31;1030573;28;20030;-73
2023/11/26 00:10:49;;;;;;;0.20;0.20;;;;;;;-0.57;100.00;95317.06;1022705;29;20071;-73
2023/11/26 00:11:20;;;;;;;0.10;0.10;;;;;;;-0.56;100.00;95318.69;1026921;28;20026;-73
2023/11/26 00:11:50;;;;;;;0.05;0.05;;;;;;;-0.59;100.00;95317.28;1017874;29;20062;-73
2023/11/26 00:12:21;;;;;;;0.10;0.10;;;;;;;-0.56;100.00;95314.31;1028028;28;20019;-72
2023/11/26 00:12:52;;;;;;;0.00;0.00;;;;;;;-0.57;100.00;95328.19;1027432;28;20065;-73
2023/11/26 00:13:23;;;;;;;0.50;0.50;;;;;;;-0.62;100.00;95301.44;1027308;28;20034;-73
2023/11/26 00:13:53;;;;;;;0.20;0.20;;;;;;;-0.58;100.00;95323.22;1027260;28;20037;-73
2023/11/26 00:14:26;;;;;;;0.10;0.10;;;;;;;-0.55;100.00;95320.25;1028114;28;20023;-73
2023/11/26 00:14:57;;;;;;;0.72;0.68;;;;;;;-0.55;100.00;95320.25;1024308;29;20024;-73
2023/11/26 00:15:27;;;;;;;0.00;0.00;;;;;;;-0.55;100.00;95318.47;1026442;28;20026;-73
2023/11/26 00:15:58;;;;;;;0.52;0.32;;;;;;;-0.59;100.00;95313.94;1033097;28;20042;-74
2023/11/26 00:16:29;;;;;;;0.10;0.10;;;;;;;-0.56;100.00;95323.84;1028332;28;20110;-73
2023/11/26 00:17:00;;;;;;;0.00;0.00;;;;;;;-0.62;100.00;95309.19;1035716;28;20014;-73
2023/11/26 00:17:31;;;;;;;0.35;0.35;;;;;;;-0.53;100.00;95326.00;1034817;28;20018;-72
2023/11/26 00:18:01;;;;;;;0.10;0.10;;;;;;;-0.55;100.00;95322.84;1031058;28;20457;-72
2023/11/26 00:18:32;;;;;;;0.50;0.50;;;;;;;-0.55;100.00;95330.56;1023067;29;20441;-73
2023/11/26 00:19:03;;;;;;;0.00;0.00;;;;;;;-0.54;100.00;95325.22;1026055;28;20869;-73
2023/11/26 00:19:34;;;;;;;0.30;0.30;;;;;;;-0.61;100.00;95310.75;1021044;29;20019;-73
2023/11/26 00:20:06;;;;;;;0.80;0.30;;;;;;;-0.60;100.00;95314.94;1022519;29;20019;-73
2023/11/26 00:20:37;;;;;;;0.00;0.00;;;;;;;-0.52;100.00;95322.44;1019409;28;20034;-72
2023/11/26 00:21:08;;;;;;;0.52;0.52;;;;;;;-0.52;100.00;95320.63;1019223;29;20051;-73
2023/11/26 00:21:38;;;;;;;0.10;0.10;;;;;;;-0.51;100.00;95327.38;1023225;28;20110;-73
2023/11/26 00:22:11;;;;;;;0.00;0.00;;;;;;;-0.52;100.00;95322.44;1030960;28;20454;-73
2023/11/26 00:22:42;;;;;;;0.08;0.08;;;;;;;-0.51;100.00;95326.56;1026129;28;20038;-73
2023/11/26 00:23:12;;;;;;;0.00;0.00;;;;;;;-0.50;100.00;95323.03;1018524;29;20118;-74
2023/11/26 00:23:43;;;;;;;0.30;0.30;;;;;;;-0.49;100.00;95324.59;1034872;28;20049;-73
2023/11/26 00:24:13;;;;;;;0.30;0.30;;;;;;;-0.51;100.00;95329.94;1030466;28;20034;-74
2023/11/26 00:24:44;;;;;;;1.10;0.55;;;;;;;-0.53;100.00;95334.53;1022522;29;20019;-73
2023/11/26 00:25:14;;;;;;;0.40;0.40;;;;;;;-0.51;100.00;95329.94;1026779;28;20502;-74
2023/11/26 00:25:45;;;;;;;0.00;0.00;;;;;;;-0.52;100.00;95332.72;1030419;28;20122;-73
2023/11/26 00:26:16;;;;;;;0.00;0.00;;;;;;;-0.54;100.00;95334.72;1019125;29;20031;-73
2023/11/26 00:26:47;;;;;;;0.00;0.00;;;;;;;-0.56;100.00;95329.00;1022543;29;20039;-73
2023/11/26 00:27:17;;;;;;;0.70;0.70;;;;;;;-0.59;100.00;95327.59;1018437;29;20283;-73
2023/11/26 00:27:48;;;;;;;0.10;0.10;;;;;;;-0.55;100.00;95343.44;1019048;29;20035;-73
2023/11/26 00:28:19;;;;;;;0.00;0.00;;;;;;;-0.58;100.00;95331.75;1026453;28;20142;-73
2023/11/26 00:28:49;;;;;;;0.85;0.30;;;;;;;-0.53;100.00;95344.03;1029759;28;20492;-73
2023/11/26 00:29:20;;;;;;;0.45;0.45;;;;;;;-0.54;100.00;95337.28;1030360;28;20058;-73
2023/11/26 00:29:53;;;;;;;0.00;0.00;;;;;;;-0.59;100.00;95334.53;1026596;28;20114;-73
2023/11/26 00:30:24;;;;;;;4.34;0.64;;;;;;;-0.56;100.00;95347.03;1026691;28;20031;-73
2023/11/26 00:30:55;;;;;;;0.15;0.15;;;;;;;-0.57;100.00;95345.41;1022424;29;20024;-73
2023/11/26 00:31:25;;;;;;;0.20;0.20;;;;;;;-0.53;100.00;95349.19;1025805;28;20033;-72
2023/11/26 00:31:56;;;;;;;0.00;0.00;;;;;;;-0.53;100.00;95354.34;1022799;29;20102;-72
2023/11/26 00:32:26;;;;;;;0.20;0.20;;;;;;;-0.52;100.00;95350.78;1026595;28;20496;-73
2023/11/26 00:32:57;;;;;;;0.10;0.10;;;;;;;-0.49;100.00;95350.38;1030355;28;20117;-73
2023/11/26 00:33:27;;;;;;;0.35;0.35;;;;;;;-0.51;100.00;95350.56;1022641;29;20050;-73
2023/11/26 00:33:58;;;;;;;0.90;0.30;;;;;;;-0.53;100.00;95352.56;1018393;29;20027;-73
2023/11/26 00:34:28;;;;;;;0.30;0.30;;;;;;;-0.50;100.00;95348.78;1021146;29;20099;-73
2023/11/26 00:34:59;;;;;;;0.00;0.00;;;;;;;-0.54;100.00;95357.91;1022352;29;20023;-73
2023/11/26 00:35:30;;;;;;;0.03;0.03;;;;;;;-0.54;100.00;95352.75;1030307;28;20050;-73
2023/11/26 00:36:00;;;;;;;0.00;0.00;;;;;;;-0.59;100.00;95350.00;1030746;28;20019;-73
2023/11/26 00:36:31;;;;;;;0.05;0.05;;;;;;;-0.54;100.00;95357.91;1020395;29;20053;-73
2023/11/26 00:37:02;;;;;;;0.20;0.20;;;;;;;-0.54;100.00;95358.72;1030277;28;20094;-73
2023/11/26 00:37:32;;;;;;;0.00;0.00;;;;;;;-0.55;100.00;95361.47;1026816;28;20023;-73
2023/11/26 00:38:03;;;;;;;0.03;0.03;;;;;;;-0.54;100.00;95363.06;1030472;28;20025;-74
2023/11/26 00:38:33;;;;;;;2.30;0.73;;;;;;;-0.57;100.00;95356.53;1030812;28;20076;-73
2023/11/26 00:39:04;;;;;;;0.20;0.20;;;;;;;-0.53;100.00;95359.50;1026553;28;20019;-73
2023/11/26 00:39:34;;;;;;;0.00;0.00;;;;;;;-0.54;100.00;95366.44;1024308;28;20688;-73
2023/11/26 00:40:06;;;;;;;0.03;0.03;;;;;;;-0.53;100.00;95364.66;1022677;29;20126;-73
2023/11/26 00:40:36;;;;;;;0.10;0.10;;;;;;;-0.54;100.00;95358.72;1015439;29;20020;-73
2023/11/26 00:41:07;;;;;;;0.35;0.35;;;;;;;-0.53;100.00;95362.09;1016707;29;20411;-73
2023/11/26 00:41:38;;;;;;;0.68;0.68;;;;;;;-0.53;100.00;95359.50;1018251;29;20040;-73
2023/11/26 00:42:08;;;;;;;0.30;0.30;;;;;;;-0.50;100.00;95364.25;1022445;29;20086;-74
2023/11/26 00:42:39;;;;;;;0.65;0.30;;;;;;;-0.53;100.00;95365.44;1022581;28;20031;-72
2023/11/26 00:43:09;;;;;;;0.38;0.38;;;;;;;-0.54;100.00;95370.78;1018457;29;20471;-73
2023/11/26 00:43:40;;;;;;;0.20;0.20;;;;;;;-0.55;100.00;95367.41;1023226;28;20019;-73
2023/11/26 00:44:11;;;;;;;1.75;1.40;;;;;;;-0.54;100.00;95373.34;1018954;29;20024;-73
2023/11/26 00:44:41;;;;;;;0.28;0.28;;;;;;;-0.60;100.00;95358.72;1031456;28;20065;-73
2023/11/26 00:45:12;;;;;;;0.50;0.50;;;;;;;-0.54;100.00;95368.22;1027149;28;20026;-73
2023/11/26 00:45:43;;;;;;;0.13;0.13;;;;;;;-0.53;100.00;95367.22;1023853;28;20027;-73
2023/11/26 00:46:13;;;;;;;0.10;0.10;;;;;;;-0.54;100.00;95374.19;1026237;28;20088;-73
2023/11/26 00:46:44;;;;;;;0.20;0.20;;;;;;;-0.51;100.00;95372.97;1026724;28;20051;-73
2023/11/26 00:47:14;;;;;;;0.00;0.00;;;;;;;-0.52;100.00;95368.81;1022492;29;20463;-73
2023/11/26 00:47:45;;;;;;;0.90;0.80;;;;;;;-0.52;100.00;95367.03;1026991;28;20042;-72
2023/11/26 00:48:16;;;;;;;0.28;0.28;;;;;;;-0.61;100.00;95359.72;1034694;28;20057;-72
2023/11/26 00:48:47;;;;;;;0.15;0.15;;;;;;;-0.57;100.00;95368.59;1026468;28;20122;-73
2023/11/26 00:49:17;;;;;;;0.17;0.17;;;;;;;-0.52;100.00;95379.13;1022396;29;20035;-73
2023/11/26 00:49:48;;;;;;;0.20;0.20;;;;;;;-0.54;100.00;95374.19;1030683;28;20478;-73
2023/11/26 00:50:18;;;;;;;0.00;0.00;;;;;;;-0.54;100.00;95369.03;1030249;28;20083;-73
2023/11/26 00:50:49;;;;;;;0.55;0.55;;;;;;;-0.54;100.00;95375.94;1027014;28;20026;-73
2023/11/26 00:51:20;;;;;;;0.00;0.00;;;;;;;-0.54;100.00;95373.34;1026290;28;20033;-73
2023/11/26 00:51:52;;;;;;;0.10;0.10;;;;;;;-0.53;100.00;95373.19;1029795;28;20022;-73
2023/11/26 00:52:22;;;;;;;6.42;0.88;;;;;;;-0.55;100.00;95379.50;1022554;28;20439;-73
2023/11/26 00:52:53;;;;;;;0.10;0.10;;;;;;;-0.53;100.00;95369.81;1026152;28;20125;-73
2023/11/26 00:53:23;;;;;;;0.10;0.10;;;;;;;-0.57;100.00;95368.59;1030330;28;20101;-73
2023/11/26 00:53:55;;;;;;;0.30;0.30;;;;;;;-0.55;100.00;95377.72;1026803;28;20506;-74
2023/11/26 00:54:25;;;;;;;0.20;0.20;;;;;;;-0.56;100.00;95371.00;1022203;29;20030;-73
2023/11/26 00:54:55;;;;;;;0.63;0.63;;;;;;;-0.55;100.00;95375.16;1022684;29;20458;-73
2023/11/26 00:55:26;;;;;;;0.10;0.10;;;;;;;-0.53;100.00;95378.31;1034212;28;20060;-73
2023/11/26 00:55:56;;;;;;;0.50;0.50;;;;;;;-0.53;100.00;95380.91;1034483;28;20470;-73
2023/11/26 00:56:27;;;;;;;0.35;0.30;;;;;;;-0.55;100.00;95377.72;1026583;28;20098;-73
2023/11/26 00:56:57;;;;;;;0.20;0.20;;;;;;;-0.53;100.00;95374.97;1034340;28;20057;-73
2023/11/26 00:57:28;;;;;;;0.60;0.30;;;;;;;-0.57;100.00;95373.75;1030428;28;20033;-73
2023/11/26 00:57:59;;;;;;;0.00;0.00;;;;;;;-0.53;100.00;95386.06;1026573;28;20089;-73
2023/11/26 00:58:29;;;;;;;0.00;0.00;;;;;;;-0.54;100.00;95381.91;1025431;28;20125;-73
2023/11/26 00:59:00;;;;;;;0.45;0.45;;;;;;;-0.51;100.00;95380.69;1030680;28;20860;-73
2023/11/26 00:59:30;;;;;;;0.20;0.20;;;;;;;-0.57;100.00;95384.06;1022530;29;20521;-73
2023/11/26 01:00:01;;;;;;;0.10;0.10;;;;;;;-0.52;100.00;95386.84;1022221;29;20470;-72
2023/11/26 01:00:32;;;;;;;0.00;0.00;;;;;;;-0.53;100.00;95385.28;1030096;28;20645;-72
2023/11/26 01:01:02;;;;;;;2.13;2.00;;;;;;;-0.49;100.00;95391.59;1030349;28;20089;-73
2023/11/26 01:01:33;;;;;;;0.30;0.30;;;;;;;-0.58;100.00;95382.50;1018044;29;20028;-73
2023/11/26 01:02:07;;;;;;;0.40;0.40;;;;;;;-0.57;100.00;95382.31;1034623;28;20432;-73
2023/11/26 01:02:38;;;;;;;0.30;0.30;;;;;;;-0.51;100.00;95401.31;1034135;28;20170;-73
2023/11/26 01:03:08;;;;;;;0.00;0.00;;;;;;;-0.56;100.00;95394.19;1030844;28;20018;-73
2023/11/26 01:03:39;;;;;;;0.32;0.32;;;;;;;-0.55;100.00;95400.91;1023483;28;20027;-72
2023/11/26 01:04:09;;;;;;;0.40;0.40;;;;;;;-0.56;100.00;95398.56;1026544;28;20030;-72
2023/11/26 01:04:40;;;;;;;0.08;0.08;;;;;;;-0.57;100.00;95394.38;1022640;29;20027;-73
2023/11/26 01:05:11;;;;;;;0.35;0.35;;;;;;;-0.54;100.00;95407.69;1030522;28;20026;-73
2023/11/26 01:05:41;;;;;;;0.10;0.10;;;;;;;-0.56;100.00;95401.91;1034220;28;20064;-73
2023/11/26 01:06:12;;;;;;;0.63;0.63;;;;;;;-0.60;100.00;95397.38;1026770;28;20023;-73
2023/11/26 01:06:42;;;;;;;0.08;0.08;;;;;;;-0.53;100.00;95408.47;1026339;28;20023;-73
2023/11/26 01:07:13;;;;;;;0.10;0.10;;;;;;;-0.56;100.00;95401.13;1022619;29;20031;-73
2023/11/26 01:07:43;;;;;;;0.65;0.65;;;;;;;-0.55;100.00;95406.06;1022338;29;20027;-73
2023/11/26 01:08:14;;;;;;;0.85;0.85;;;;;;;-0.62;100.00;95394.19;1026389;28;20023;-73
2023/11/26 01:08:45;;;;;;;0.50;0.50;;;;;;;-0.55;100.00;95408.66;1034459;28;20018;-73
2023/11/26 01:09:15;;;;;;;0.10;0.10;;;;;;;-0.56;100.00;95411.44;1034471;28;20608;-73
2023/11/26 01:09:46;;;;;;;0.28;0.28;;;;;;;-0.55;100.00;95410.44;1034555;28;20044;-73
2023/11/26 01:10:16;;;;;;;0.47;0.47;;;;;;;-0.58;100.00;95405.69;1030426;28;20053;-72
2023/11/26 01:10:47;;;;;;;0.08;0.08;;;;;;;-0.59;100.00;95407.47;1022223;29;20030;-73
2023/11/26 01:11:17;;;;;;;2.85;0.30;;;;;;;-0.57;100.00;95414.97;1026789;28;20027;-73
2023/11/26 01:11:48;;;;;;;0.25;0.25;;;;;;;-0.57;100.00;95410.66;1021938;28;20038;-74
2023/11/26 01:12:18;;;;;;;0.75;0.35;;;;;;;-0.59;100.00;95407.47;1034285;28;20505;-73
2023/11/26 01:12:49;;;;;;;0.22;0.22;;;;;;;-0.55;100.00;95413.81;1022672;29;20028;-73
2023/11/26 01:13:19;;;;;;;0.17;0.17;;;;;;;-0.54;100.00;95414.59;1018485;29;20424;-73
2023/11/26 01:13:50;;;;;;;0.00;0.00;;;;;;;-0.63;100.00;95401.13;1026449;28;20051;-74
2023/11/26 01:14:20;;;;;;;0.05;0.05;;;;;;;-0.75;100.00;95382.91;1030346;28;20084;-73
2023/11/26 01:14:51;;;;;;;0.20;0.20;;;;;;;-0.54;100.00;95414.59;1026503;28;20042;-73
2023/11/26 01:15:23;;;;;;;0.36;0.30;;;;;;;-0.53;100.00;95416.19;1026643;28;20694;-73
2023/11/26 01:15:54;;;;;;;0.26;0.26;;;;;;;-0.52;100.00;95417.75;1022378;29;20053;-73
2023/11/26 01:16:24;;;;;;;0.30;0.30;;;;;;;-0.54;100.00;95419.75;1027057;28;20031;-73
2023/11/26 01:16:55;;;;;;;0.40;0.40;;;;;;;-0.54;100.00;95415.41;1022837;29;20474;-73
2023/11/26 01:17:25;;;;;;;0.10;0.10;;;;;;;-0.52;100.00;95415.19;1030205;28;20231;-73
2023/11/26 01:17:56;;;;;;;0.45;0.45;;;;;;;-0.53;100.00;95413.63;1026373;28;20154;-73
2023/11/26 01:18:26;;;;;;;0.63;0.63;;;;;;;-0.55;100.00;95421.53;1035817;28;20079;-73
2023/11/26 01:19:00;;;;;;;0.10;0.10;;;;;;;-0.54;100.00;95414.59;1031201;28;20046;-73
2023/11/26 01:19:31;;;;;;;0.50;0.50;;;;;;;-0.53;100.00;95413.63;1035876;28;20022;-73
2023/11/26 01:20:05;;;;;;;0.22;0.22;;;;;;;-0.52;100.00;95417.75;1027510;28;20506;-74
2023/11/26 01:20:36;;;;;;;0.04;0.04;;;;;;;-0.54;100.00;95414.59;1037804;28;20084;-73
2023/11/26 01:21:07;;;;;;;0.25;0.25;;;;;;;-0.51;100.00;95414.19;1031592;28;20105;-73
2023/11/26 01:21:38;;;;;;;0.10;0.10;;;;;;;-0.49;100.00;95419.94;1029715;28;20035;-73
2023/11/26 01:22:09;;;;;;;0.18;0.18;;;;;;;-0.53;100.00;95421.34;1026663;28;20470;-73
2023/11/26 01:22:40;;;;;;;0.20;0.20;;;;;;;-0.51;100.00;95419.34;1026079;28;20031;-73
2023/11/26 01:23:14;;;;;;;0.74;0.74;;;;;;;-0.53;100.00;95423.91;1026423;28;20094;-73
2023/11/26 01:23:45;;;;;;;0.32;0.32;;;;;;;-0.51;100.00;95421.91;1026642;28;20035;-73
2023/11/26 01:24:16;;;;;;;0.43;0.43;;;;;;;-0.51;100.00;95421.91;1026186;28;20091;-73
2023/11/26 01:24:46;;;;;;;0.00;0.00;;;;;;;-0.52;100.00;95417.75;1034477;28;20143;-72
2023/11/26 01:25:17;;;;;;;0.10;0.10;;;;;;;-0.52;100.00;95425.50;1034809;28;20041;-73
2023/11/26 01:25:47;;;;;;;0.22;0.22;;;;;;;-0.50;100.00;95423.53;1034381;28;20085;-73
2023/11/26 01:26:18;;;;;;;0.10;0.10;;;;;;;-0.58;100.00;95416.00;1038800;28;20033;-73
2023/11/26 01:26:48;;;;;;;0.17;0.17;;;;;;;-0.52;100.00;95433.22;1030422;28;20034;-73
2023/11/26 01:27:19;;;;;;;0.45;0.45;;;;;;;-0.51;100.00;95434.81;1034386;28;20112;-72
2023/11/26 01:27:49;;;;;;;0.63;0.63;;;;;;;-0.51;100.00;95434.81;1034940;28;20022;-73
2023/11/26 01:28:20;;;;;;;1.30;0.70;;;;;;;-0.50;100.00;95437.19;1026349;28;20034;-73
2023/11/26 01:28:50;;;;;;;0.00;0.00;;;;;;;-0.52;100.00;95430.66;1026523;28;20105;-73
2023/11/26 01:29:21;;;;;;;0.10;0.10;;;;;;;-0.54;100.00;95435.19;1026940;28;20025;-73
2023/11/26 01:29:51;;;;;;;0.10;0.10;;;;;;;-0.51;100.00;95430.44;1034391;28;20532;-74
2023/11/26 01:30:22;;;;;;;0.22;0.17;;;;;;;-0.51;100.00;95429.66;1030597;28;20142;-73
2023/11/26 01:30:52;;;;;;;0.20;0.20;;;;;;;-0.51;100.00;95435.59;1030282;28;20090;-74
2023/11/26 01:31:23;;;;;;;0.50;0.50;;;;;;;-0.55;100.00;95429.25;1018302;28;20099;-73
2023/11/26 01:31:54;;;;;;;0.45;0.40;;;;;;;-0.58;100.00;95429.66;1025928;28;20023;-73
2023/11/26 01:32:25;;;;;;;0.94;0.64;;;;;;;-0.54;100.00;95430.03;1034295;28;20018;-73
2023/11/26 01:32:55;;;;;;;0.70;0.70;;;;;;;-0.53;100.00;95432.44;1034413;28;20026;-73
2023/11/26 01:33:26;;;;;;;1.25;0.68;;;;;;;-0.54;100.00;95430.03;1034740;28;20260;-73
2023/11/26 01:33:56;;;;;;;0.90;0.90;;;;;;;-0.52;100.00;95434.00;1026216;28;20027;-73
2023/11/26 01:34:27;;;;;;;0.10;0.10;;;;;;;-0.53;100.00;95440.16;1026556;28;20131;-73
2023/11/26 01:34:58;;;;;;;0.40;0.40;;;;;;;-0.52;100.00;95441.75;1026160;28;20030;-74
2023/11/26 01:35:28;;;;;;;0.10;0.10;;;;;;;-0.58;100.00;95431.44;1018573;29;20027;-73
2023/11/26 01:35:59;;;;;;;0.43;0.43;;;;;;;-0.55;100.00;95433.63;1022317;29;20046;-73
2023/11/26 01:36:29;;;;;;;0.10;0.10;;;;;;;-0.51;100.00;95445.91;1022301;29;20043;-72
2023/11/26 01:37:00;;;;;;;1.35;1.25;;;;;;;-0.56;100.00;95438.00;1026275;28;20507;-73
2023/11/26 01:37:31;;;;;;;2.60;1.02;;;;;;;-0.55;100.00;95439.56;1030615;28;20018;-72
2023/11/26 01:38:02;;;;;;;0.52;0.52;;;;;;;-0.55;100.00;95434.41;1030346;28;20030;-73
2023/11/26 01:38:32;;;;;;;0.00;0.00;;;;;;;-0.55;100.00;95439.56;1026726;28;20019;-74
2023/11/26 01:39:03;;;;;;;0.60;0.38;;;;;;;-0.53;100.00;95442.75;1018308;29;20456;-73
2023/11/26 01:39:33;;;;;;;0.52;0.52;;;;;;;-0.51;100.00;95439.97;1031153;28;20045;-74
2023/11/26 01:40:05;;;;;;;2.10;0.43;;;;;;;-0.53;100.00;95452.28;1026436;28;20093;-73
2023/11/26 01:40:37;;;;;;;0.06;0.06;;;;;;;-0.59;100.00;95437.59;1026273;28;20050;-73
2023/11/26 01:41:07;;;;;;;0.54;0.54;;;;;;;-0.55;100.00;95449.88;1034249;28;20018;-73
2023/11/26 01:41:38;;;;;;;0.55;0.52;;;;;;;-0.54;100.00;95448.91;1022020;29;20577;-73
2023/11/26 01:42:09;;;;;;;0.00;0.00;;;;;;;-0.60;100.00;95447.13;1018399;29;20072;-73
2023/11/26 01:42:43;;;;;;;0.32;0.32;;;;;;;-0.59;100.00;95442.75;1022446;28;20030;-73
2023/11/26 01:43:14;;;;;;;0.00;0.00;;;;;;;-0.53;100.00;95452.28;1022479;29;20270;-73
2023/11/26 01:43:47;;;;;;;1.08;0.60;;;;;;;-0.53;100.00;95462.56;1022308;29;20027;-73
2023/11/26 01:44:18;;;;;;;0.70;0.70;;;;;;;-0.54;100.00;95455.81;1034513;28;20256;-73
2023/11/26 01:44:48;;;;;;;0.05;0.05;;;;;;;-0.59;100.00;95442.75;1026267;28;20042;-73
2023/11/26 01:45:19;;;;;;;0.22;0.22;;;;;;;-0.61;100.00;95439.56;1026143;28;20086;-73
2023/11/26 01:45:50;;;;;;;0.20;0.20;;;;;;;-0.60;100.00;95452.28;1034595;28;20018;-73
2023/11/26 01:46:20;;;;;;;0.77;0.77;;;;;;;-0.53;100.00;95460.00;1028688;28;20030;-73
2023/11/26 01:46:51;;;;;;;0.95;0.95;;;;;;;-0.53;100.00;95457.41;1022624;29;20062;-73
2023/11/26 01:47:22;;;;;;;0.57;0.57;;;;;;;-0.56;100.00;95457.81;1022453;29;20023;-73
2023/11/26 01:47:52;;;;;;;0.10;0.10;;;;;;;-0.55;100.00;95459.41;1022301;29;20035;-73
2023/11/26 01:48:23;;;;;;;0.60;0.55;;;;;;;-0.54;100.00;95460.97;1018530;29;20127;-73
2023/11/26 01:48:53;;;;;;;0.77;0.57;;;;;;;-0.54;100.00;95454.06;1026327;28;20034;-73
2023/11/26 01:49:24;;;;;;;0.52;0.20;;;;;;;-0.54;100.00;95456.63;1026657;28;20065;-73
2023/11/26 01:49:55;;;;;;;0.35;0.35;;;;;;;-0.53;100.00;95452.28;1014532;29;20060;-72
2023/11/26 01:50:25;;;;;;;0.28;0.28;;;;;;;-0.56;100.00;95453.44;1018312;29;20388;-72
2023/11/26 01:50:56;;;;;;;0.50;0.50;;;;;;;-0.54;100.00;95460.97;1014910;29;20052;-72
2023/11/26 01:51:27;;;;;;;0.32;0.32;;;;;;;-0.59;100.00;95459.00;1013709;29;20492;-72
2023/11/26 01:51:59;;;;;;;0.10;0.10;;;;;;;-0.59;100.00;95459.00;1022307;29;20027;-73
2023/11/26 01:52:30;;;;;;;0.44;0.44;;;;;;;-0.61;100.00;95466.13;1026603;28;20603;-73
2023/11/26 01:53:00;;;;;;;0.10;0.10;;;;;;;-0.62;100.00;95461.19;1017948;29;20051;-73
2023/11/26 01:53:31;;;;;;;0.30;0.30;;;;;;;-0.65;100.00;95464.94;1026768;28;20011;-73
2023/11/26 01:54:02;;;;;;;0.20;0.20;;;;;;;-0.62;100.00;95463.75;1014371;29;20047;-73
2023/11/26 01:54:35;;;;;;;0.60;0.60;;;;;;;-0.67;100.00;95464.38;1026553;28;20039;-73
2023/11/26 01:55:06;;;;;;;0.04;0.04;;;;;;;-0.68;100.00;95464.56;1022779;29;20024;-73
2023/11/26 01:55:36;;;;;;;0.00;0.00;;;;;;;-0.72;100.00;95462.38;1026420;29;20019;-73
2023/11/26 01:56:07;;;;;;;0.15;0.15;;;;;;;-0.72;100.00;95459.78;1018520;29;20152;-73
2023/11/26 01:56:38;;;;;;;0.56;0.56;;;;;;;-0.73;100.00;95468.53;1022267;28;20558;-73
2023/11/26 01:57:09;;;;;;;0.68;0.68;;;;;;;-0.76;100.00;95468.91;1026296;28;20050;-72
2023/11/26 01:57:40;;;;;;;0.24;0.24;;;;;;;-0.78;100.00;95467.53;1022497;29;20039;-73
2023/11/26 01:58:10;;;;;;;0.17;0.17;;;;;;;-0.86;100.00;95450.50;1022242;28;20479;-72
2023/11/26 01:58:41;;;;;;;0.30;0.30;;;;;;;-0.80;100.00;95462.59;1022080;28;20131;-73
2023/11/26 01:59:11;;;;;;;0.90;0.75;;;;;;;-0.84;100.00;95456.25;1026740;28;20157;-73
2023/11/26 01:59:42;;;;;;;0.45;0.45;;;;;;;-1.00;100.00;95443.75;1030242;28;20034;-72
2023/11/26 02:00:14;;;;;;;0.00;0.00;;;;;;;-0.87;100.00;95464.38;1033828;28;20034;-73
2023/11/26 02:00:45;;;;;;;1.00;0.78;;;;;;;-0.85;100.00;95464.94;1030471;28;20019;-72
2023/11/26 02:01:16;;;;;;;0.10;0.10;;;;;;;-0.86;100.00;95460.78;1030133;28;20041;-72
2023/11/26 02:01:46;;;;;;;0.10;0.10;;;;;;;-0.85;100.00;95462.38;1025956;28;20099;-72
2023/11/26 02:02:17;;;;;;;0.10;0.10;;;;;;;-0.88;100.00;95465.34;1030092;28;20500;-72
2023/11/26 02:02:47;;;;;;;0.10;0.10;;;;;;;-0.89;100.00;95468.91;1030292;28;20034;-72
2023/11/26 02:03:18;;;;;;;0.35;0.35;;;;;;;-0.85;100.00;95464.94;1030537;28;20030;-73
2023/11/26 02:03:49;;;;;;;0.00;0.00;;;;;;;-0.87;100.00;95464.38;1030140;28;20105;-73
2023/11/26 02:04:19;;;;;;;0.28;0.28;;;;;;;-0.86;100.00;95470.31;1030142;28;20053;-73
2023/11/26 02:04:50;;;;;;;0.10;0.10;;;;;;;-0.90;100.00;95461.41;1026600;28;20120;-72
2023/11/26 02:05:20;;;;;;;0.20;0.20;;;;;;;-0.94;100.00;95455.81;1025985;28;20031;-73
2023/11/26 02:05:51;;;;;;;0.38;0.38;;;;;;;-0.91;100.00;95463.16;1026653;28;20031;-72
2023/11/26 02:06:22;;;;;;;0.62;0.62;;;;;;;-0.93;100.00;95460.00;1030270;28;20041;-73
2023/11/26 02:06:56;;;;;;;1.83;1.55;;;;;;;-0.99;100.00;95453.06;1034045;28;20024;-73
2023/11/26 02:07:29;;;;;;;0.20;0.20;;;;;;;-0.91;100.00;95459.78;1019632;29;20083;-72
2023/11/26 02:08:00;;;;;;;0.20;0.20;;;;;;;-0.96;100.00;95458.59;1025565;28;20030;-73
2023/11/26 02:08:32;;;;;;;0.10;0.10;;;;;;;-0.95;100.00;95459.41;1030515;28;20066;-73
2023/11/26 02:09:03;;;;;;;1.12;1.06;;;;;;;-0.96;100.00;95460.38;1025903;28;20322;-73
2023/11/26 02:09:34;;;;;;;0.20;0.20;;;;;;;-1.04;100.00;95458.00;1026247;28;20561;-72
2023/11/26 02:10:08;;;;;;;0.10;0.10;;;;;;;-1.06;100.00;95452.25;1022482;29;20023;-72
2023/11/26 02:10:38;;;;;;;0.20;0.20;;;;;;;-1.04;100.00;95455.41;1018090;29;20059;-73
2023/11/26 02:11:09;;;;;;;0.60;0.60;;;;;;;-0.98;100.00;95463.16;1022201;29;20023;-73
2023/11/26 02:11:40;;;;;;;0.03;0.03;;;;;;;-1.00;100.00;95472.88;1033775;28;20084;-72
2023/11/26 02:12:11;;;;;;;0.17;0.17;;;;;;;-0.99;100.00;95461.56;1022023;29;20036;-73
2023/11/26 02:13:00;;;;;;;0.00;0.00;;;;;;;-1.06;100.00;95458.19;1021733;29;20043;-72
2023/11/26 02:13:30;;;;;;;0.00;0.00;;;;;;;-1.06;100.00;95472.84;1022191;29;20012;-72
2023/11/26 02:14:01;;;;;;;0.43;0.43;;;;;;;-1.24;100.00;95439.94;1020975;29;20620;-72
2023/11/26 02:14:31;;;;;;;0.25;0.25;;;;;;;-1.13;100.00;95452.25;1018392;29;20032;-73
2023/11/26 02:15:02;;;;;;;0.10;0.10;;;;;;;-1.03;100.00;95462.97;1018361;29;20112;-72
2023/11/26 02:15:34;;;;;;;0.16;0.16;;;;;;;-1.02;100.00;95474.03;1022358;29;20520;-72
2023/11/26 02:16:04;;;;;;;0.00;0.00;;;;;;;-1.03;100.00;95468.09;1026098;28;20042;-72
2023/11/26 02:16:35;;;;;;;0.25;0.25;;;;;;;-1.02;100.00;95468.91;1022250;29;20031;-72
2023/11/26 02:17:05;;;;;;;0.75;0.68;;;;;;;-1.03;100.00;95477.63;1026491;28;20464;-73
2023/11/26 02:17:36;;;;;;;0.43;0.43;;;;;;;-1.04;100.00;95476.00;1022018;29;20030;-72
2023/11/26 02:18:07;;;;;;;0.88;0.80;;;;;;;-1.03;100.00;95472.47;1022589;29;20031;-73
2023/11/26 02:18:37;;;;;;;0.32;0.32;;;;;;;-1.06;100.00;95475.44;1030296;28;20484;-73
2023/11/26 02:19:31;;;;;;;0.90;0.43;;;;;;;-1.11;100.00;95468.28;1030041;28;20197;-73
2023/11/26 02:20:06;;;;;;;2.26;2.12;;;;;;;-1.09;100.00;95476.63;1018118;29;20050;-73
2023/11/26 02:20:37;;;;;;;0.22;0.22;;;;;;;-1.11;100.00;95475.22;1024507;28;20548;-73
2023/11/26 02:21:11;;;;;;;0.16;0.16;;;;;;;-1.12;100.00;95478.78;1018729;29;20518;-72
2023/11/26 02:21:42;;;;;;;2.34;1.04;;;;;;;-1.13;100.00;95472.84;1028244;28;20030;-72
2023/11/26 02:22:15;;;;;;;0.05;0.05;;;;;;;-1.10;100.00;95477.59;1021999;28;20121;-74
2023/11/26 02:22:46;;;;;;;0.00;0.00;;;;;;;-1.15;100.00;95474.03;1022209;29;20570;-73
2023/11/26 02:23:16;;;;;;;0.00;0.00;;;;;;;-1.23;100.00;95468.06;1021626;29;20031;-72
2023/11/26 02:23:47;;;;;;;0.40;0.40;;;;;;;-1.24;100.00;95469.06;1026868;28;20027;-73
2023/11/26 02:24:20;;;;;;;0.00;0.00;;;;;;;-1.16;100.00;95482.75;1021355;29;20023;-73